createdAt,value
2019-06-01T00:00:12.853Z,1027.52
2019-06-01T00:10:03.444Z,1027.45
2019-06-01T00:20:03.926Z,1027.44
2019-06-01T00:30:04.488Z,1027.35
2019-06-01T00:40:03.691Z,1027.30
2019-06-01T00:50:03.953Z,1027.17
2019-06-01T01:00:04.355Z,1027.13
2019-06-01T01:10:03.705Z,1027.24
2019-06-01T01:20:03.977Z,1027.20
2019-06-01T01:30:03.729Z,1027.17
2019-06-01T01:40:04.046Z,1027.14
2019-06-01T01:50:03.779Z,1027.15
2019-06-01T02:00:03.999Z,1027.03
2019-06-01T02:10:03.550Z,1027.04
2019-06-01T02:20:04.218Z,1027.06
2019-06-01T02:30:07.356Z,1027.00
2019-06-01T02:40:06.213Z,1027.00
2019-06-01T02:50:07.193Z,1027.05
2019-06-01T03:00:07.542Z,1027.15
2019-06-01T03:10:06.990Z,1027.11
2019-06-01T03:20:07.825Z,1027.04
2019-06-01T03:30:12.185Z,1027.04
2019-06-01T03:40:23.374Z,1027.00
2019-06-01T03:50:05.301Z,1027.06
2019-06-01T04:00:07.049Z,1027.06
2019-06-01T04:10:07.800Z,1027.14
2019-06-01T04:20:05.689Z,1027.11
2019-06-01T04:30:06.737Z,1027.19
2019-06-01T04:40:05.007Z,1027.13
2019-06-01T04:50:04.860Z,1027.05
2019-06-01T05:00:27.540Z,1027.07
2019-06-01T05:10:03.530Z,1027.03
2019-06-01T05:20:03.905Z,1027.09
2019-06-01T05:30:03.868Z,1027.07
2019-06-01T05:40:03.680Z,1026.97
2019-06-01T05:50:03.706Z,1026.98
2019-06-01T06:00:03.997Z,1026.95
2019-06-01T06:10:03.948Z,1026.94
2019-06-01T06:20:03.328Z,1026.90
2019-06-01T06:30:03.994Z,1026.86
2019-06-01T06:40:03.452Z,1026.80
2019-06-01T06:50:03.567Z,1026.82
2019-06-01T07:00:03.505Z,1026.81
2019-06-01T07:10:03.846Z,1026.76
2019-06-01T07:20:03.376Z,1026.83
2019-06-01T07:30:04.440Z,1026.86
2019-06-01T07:40:14.626Z,1026.97
2019-06-01T07:50:02.947Z,1026.86
2019-06-01T08:00:04.774Z,1026.85
2019-06-01T08:10:03.847Z,1026.80
2019-06-01T08:20:04.049Z,1026.71
2019-06-01T08:30:03.846Z,1026.58
2019-06-01T08:40:04.158Z,1026.57
2019-06-01T08:50:02.997Z,1026.46
2019-06-01T09:00:04.182Z,1026.36
2019-06-01T09:10:03.435Z,1026.41
2019-06-01T09:20:06.549Z,1026.34
2019-06-01T09:30:04.389Z,1026.34
2019-06-01T09:40:03.244Z,1026.25
2019-06-01T09:50:03.196Z,1026.18
2019-06-01T10:00:03.832Z,1026.15
2019-06-01T10:10:03.466Z,1026.29
2019-06-01T10:20:04.022Z,1026.23
2019-06-01T10:30:03.508Z,1026.19
2019-06-01T10:40:03.544Z,1026.02
2019-06-01T10:50:03.620Z,1026.01
2019-06-01T11:00:04.546Z,1025.85
2019-06-01T11:10:03.478Z,1025.90
2019-06-01T11:20:03.821Z,1025.75
2019-06-01T11:30:04.538Z,1025.83
2019-06-01T11:40:03.617Z,1025.65
2019-06-01T11:50:03.527Z,1025.53
2019-06-01T12:00:03.715Z,1025.46
2019-06-01T12:10:03.520Z,1025.38
2019-06-01T12:20:03.707Z,1025.28
2019-06-01T12:30:03.487Z,1025.22
2019-06-01T12:40:08.339Z,1025.08
2019-06-01T12:50:03.980Z,1025.06
2019-06-01T13:00:03.681Z,1024.89
2019-06-01T13:10:03.366Z,1024.83
2019-06-01T13:20:03.694Z,1024.81
2019-06-01T13:30:04.417Z,1024.69
2019-06-01T13:40:03.355Z,1024.52
2019-06-01T13:50:07.728Z,1024.41
2019-06-01T14:00:04.281Z,1024.28
2019-06-01T14:10:03.037Z,1024.21
2019-06-01T14:20:03.692Z,1024.13
2019-06-01T14:30:04.464Z,1024.07
2019-06-01T14:40:03.617Z,1024.06
2019-06-01T14:50:03.384Z,1023.97
2019-06-01T15:00:04.319Z,1023.90
2019-06-01T15:10:03.691Z,1023.88
2019-06-01T15:20:03.429Z,1023.76
2019-06-01T15:30:04.230Z,1023.72
2019-06-01T15:40:04.096Z,1023.73
2019-06-01T15:50:03.437Z,1023.59
2019-06-01T16:00:04.091Z,1023.57
2019-06-01T16:10:09.076Z,1023.43
2019-06-01T16:20:04.412Z,1023.36
2019-06-01T16:30:06.467Z,1023.41
2019-06-01T16:40:11.149Z,1023.26
2019-06-01T16:50:05.817Z,1023.24
2019-06-01T17:00:06.957Z,1023.20
2019-06-01T17:10:27.009Z,1023.23
2019-06-01T17:20:05.090Z,1023.22
2019-06-01T17:30:12.366Z,1023.22
2019-06-01T17:40:06.423Z,1023.22
2019-06-01T17:50:07.373Z,1023.14
2019-06-01T18:00:07.572Z,1023.17
2019-06-01T18:10:08.222Z,1023.14
2019-06-01T18:20:04.543Z,1023.16
2019-06-01T18:30:08.634Z,1023.16
2019-06-01T18:40:07.588Z,1023.16
2019-06-01T18:50:06.026Z,1023.09
2019-06-01T19:00:11.887Z,1023.12
2019-06-01T19:10:03.831Z,1023.18
2019-06-01T19:20:03.089Z,1023.31
2019-06-01T19:30:04.064Z,1023.31
2019-06-01T19:40:04.112Z,1023.47
2019-06-01T19:50:03.155Z,1023.57
2019-06-01T20:00:03.891Z,1023.65
2019-06-01T20:10:03.672Z,1023.64
2019-06-01T20:20:03.067Z,1023.64
2019-06-01T20:30:03.838Z,1023.61
2019-06-01T20:40:03.951Z,1023.62
2019-06-01T20:50:02.957Z,1023.68
2019-06-01T21:00:04.337Z,1023.66
2019-06-01T21:10:03.808Z,1023.61
2019-06-01T21:20:05.983Z,1023.62
2019-06-01T21:30:04.172Z,1023.62
2019-06-01T21:40:03.612Z,1023.66
2019-06-01T21:50:03.987Z,1023.61
2019-06-01T22:00:03.582Z,1023.65
2019-06-01T22:10:03.596Z,1023.67
2019-06-01T22:20:03.664Z,1023.71
2019-06-01T22:30:04.146Z,1023.74
2019-06-01T22:40:03.349Z,1023.77
2019-06-01T22:50:03.800Z,1023.71
2019-06-01T23:00:03.798Z,1023.69
2019-06-01T23:10:03.802Z,1023.62
2019-06-01T23:20:02.811Z,1023.62
2019-06-01T23:30:04.503Z,1023.55
2019-06-01T23:40:03.315Z,1023.52
2019-06-01T23:50:03.302Z,1023.47
